Terminal Aerodrome Forecast
Issued by NWS

Home | Current Version | Previous Version | Text Only | Print | Product List | Glossary On
Versions: 1 2 3 4 5 6 7 8 9 10 11 12 13 14 15 16 17
000
FTUS45 KFGZ 152334
TAFSEZ
TAF
KSEZ 152334Z 1600/1624 VRB06KT P6SM FEW250
     FM160300 04010KT P6SM SCT250
     FM161800 15008KT P6SM SCT140 OVC250=

USA.gov is the U.S. government's official web portal to all federal, state and local government web resources and services.